createdAt,value
2023-08-01T00:05:00.378Z,25.1
2023-08-01T00:10:54.706Z,25.1
2023-08-01T00:16:57.364Z,25.1
2023-08-01T00:22:49.735Z,25.1
2023-08-01T00:28:45.712Z,25.1
2023-08-01T00:34:37.559Z,25.1
2023-08-01T00:40:14.443Z,25.1
2023-08-01T00:46:05.748Z,25.1
2023-08-01T00:51:57.873Z,25.2
2023-08-01T00:57:49.637Z,25.2
2023-08-01T01:03:42.360Z,25.1
2023-08-01T01:09:35.507Z,25.2
2023-08-01T01:15:27.707Z,25.2
2023-08-01T01:21:25.992Z,25.2
2023-08-01T01:27:17.490Z,25.2
2023-08-01T01:33:10.197Z,25.2
2023-08-01T01:38:31.162Z,25.2
2023-08-01T01:44:23.004Z,25.3
2023-08-01T01:50:15.245Z,25.2
2023-08-01T01:56:06.720Z,25.2
2023-08-01T02:01:58.390Z,25.3
2023-08-01T02:07:50.072Z,25.3
2023-08-01T02:13:41.524Z,25.3
2023-08-01T02:19:34.062Z,25.3
2023-08-01T02:25:28.493Z,25.3
2023-08-01T02:31:19.231Z,25.3
2023-08-01T02:37:13.087Z,25.3
2023-08-01T02:43:05.238Z,25.3
2023-08-01T02:48:56.676Z,25.3
2023-08-01T02:54:47.615Z,25.3
2023-08-01T03:00:39.752Z,25.3
2023-08-01T03:06:26.787Z,25.3
2023-08-01T03:12:31.531Z,25.3
2023-08-01T03:18:23.679Z,25.3
2023-08-01T03:24:14.447Z,25.3
2023-08-01T03:30:06.196Z,25.3
2023-08-01T03:35:58.591Z,25.3
2023-08-01T03:41:49.231Z,25.3
2023-08-01T03:47:41.317Z,25.3
2023-08-01T03:53:17.378Z,25.3
2023-08-01T03:59:25.104Z,25.3
2023-08-01T04:05:17.813Z,25.3
2023-08-01T04:11:10.125Z,25.3
2023-08-01T04:17:00.875Z,25.3
2023-08-01T04:22:52.028Z,25.3
2023-08-01T04:28:43.546Z,25.3
2023-08-01T04:34:34.894Z,25.3
2023-08-01T04:40:26.096Z,25.3
2023-08-01T04:46:17.760Z,25.2
2023-08-01T04:52:08.752Z,25.1
2023-08-01T04:57:45.415Z,25
2023-08-01T05:03:37.635Z,25
2023-08-01T05:09:28.836Z,24.9
2023-08-01T05:15:20.110Z,24.9
2023-08-01T05:21:12.136Z,24.9
2023-08-01T05:27:03.704Z,24.8
2023-08-01T05:32:54.987Z,24.8
2023-08-01T05:38:46.923Z,24.8
2023-08-01T05:44:38.154Z,24.8
2023-08-01T05:50:30.662Z,24.8
2023-08-01T05:56:23.512Z,24.8
2023-08-01T06:02:16.991Z,24.8
2023-08-01T06:07:54.393Z,24.7
2023-08-01T06:13:31.088Z,24.7
2023-08-01T06:19:07.586Z,24.6
2023-08-01T06:24:59.709Z,24.6
2023-08-01T06:30:53.788Z,24.6
2023-08-01T06:36:45.673Z,24.6
2023-08-01T06:42:37.653Z,24.6
2023-08-01T06:48:30.540Z,24.6
2023-08-01T06:54:22.347Z,24.5
2023-08-01T07:00:14.538Z,24.6
2023-08-01T07:06:09.306Z,24.5
2023-08-01T07:12:01.877Z,24.6
2023-08-01T07:17:53.882Z,24.6
2023-08-01T07:23:45.745Z,24.6
2023-08-01T07:29:39.567Z,24.6
2023-08-01T07:35:31.957Z,24.6
2023-08-01T07:41:24.302Z,24.7
2023-08-01T07:47:15.528Z,24.7
2023-08-01T07:53:07.743Z,24.7
2023-08-01T07:59:00.429Z,24.8
2023-08-01T08:04:52.739Z,24.8
2023-08-01T08:10:44.392Z,24.8
2023-08-01T08:16:36.667Z,24.8
2023-08-01T08:22:27.957Z,24.8
2023-08-01T08:27:34.059Z,24.8
2023-08-01T08:33:12.233Z,24.9
2023-08-01T08:39:04.007Z,24.9
2023-08-01T08:44:56.211Z,24.8
2023-08-01T08:50:49.427Z,24.8
2023-08-01T08:56:41.537Z,24.9
2023-08-01T09:02:33.981Z,24.8
2023-08-01T09:08:29.526Z,24.9
2023-08-01T09:14:20.948Z,24.9
2023-08-01T09:20:15.258Z,24.9
2023-08-01T09:25:54.202Z,24.9
2023-08-01T09:31:47.854Z,24.9
2023-08-01T09:37:40.072Z,25
2023-08-01T09:43:15.851Z,25
2023-08-01T09:49:11.495Z,25
2023-08-01T09:54:47.929Z,25.1
2023-08-01T10:00:39.363Z,25.1
2023-08-01T10:06:31.968Z,25.1
2023-08-01T10:12:24.560Z,25.1
2023-08-01T10:18:17.974Z,25.1
2023-08-01T10:24:09.667Z,25.1
2023-08-01T10:29:45.663Z,25.2
2023-08-01T10:35:23.366Z,25.2
2023-08-01T10:41:14.678Z,25.3
2023-08-01T10:47:08.945Z,25.3
2023-08-01T10:53:00.996Z,25.3
2023-08-01T10:58:57.211Z,25.3
2023-08-01T11:04:34.522Z,25.3
2023-08-01T11:10:26.505Z,25.3
2023-08-01T11:16:17.553Z,25.3
2023-08-01T11:21:53.109Z,25.3
2023-08-01T11:27:45.750Z,25.3
2023-08-01T11:33:37.703Z,25.3
2023-08-01T11:39:30.208Z,25.4
2023-08-01T11:45:21.931Z,25.4
2023-08-01T11:51:14.093Z,25.4
2023-08-01T11:57:06.424Z,25.4
2023-08-01T12:02:59.648Z,25.4
2023-08-01T12:08:53.454Z,25.4
2023-08-01T12:14:47.028Z,25.4
2023-08-01T12:20:55.319Z,25.4
2023-08-01T12:26:47.508Z,25.4
2023-08-01T12:32:39.037Z,25.4
2023-08-01T12:38:31.514Z,25.4
2023-08-01T12:44:23.298Z,25.4
2023-08-01T12:50:19.484Z,25.4
2023-08-01T12:56:11.427Z,25.4
2023-08-01T13:01:48.121Z,25.4
2023-08-01T13:07:40.124Z,25.4
2023-08-01T13:13:32.003Z,25.4
2023-08-01T13:19:36.285Z,25.4
2023-08-01T13:25:30.625Z,25.4
2023-08-01T13:31:22.600Z,25.4
2023-08-01T13:37:15.089Z,25.5
2023-08-01T13:43:05.383Z,25.5
2023-08-01T13:49:11.958Z,25.4
2023-08-01T13:55:06.077Z,25.5
2023-08-01T14:01:04.448Z,25.5
2023-08-01T14:06:57.095Z,25.5
2023-08-01T14:12:48.931Z,25.5
2023-08-01T14:18:40.995Z,25.5
2023-08-01T14:24:32.257Z,25.5
2023-08-01T14:30:23.748Z,25.5
2023-08-01T14:36:16.217Z,25.6
2023-08-01T14:43:08.101Z,25.5
2023-08-01T14:49:00.442Z,25.6
2023-08-01T14:55:10.654Z,25.6
2023-08-01T15:01:01.906Z,25.6
2023-08-01T15:06:57.711Z,25.6
2023-08-01T15:12:34.414Z,25.6
2023-08-01T15:18:11.186Z,25.6
2023-08-01T15:24:02.814Z,25.6
2023-08-01T15:29:54.422Z,25.6
2023-08-01T15:35:45.913Z,25.6
2023-08-01T15:41:37.538Z,25.6
2023-08-01T15:47:32.623Z,25.6
2023-08-01T15:53:24.336Z,25.6
2023-08-01T15:59:17.399Z,25.6
2023-08-01T16:05:08.774Z,25.6
2023-08-01T16:10:45.689Z,25.6
2023-08-01T16:16:37.102Z,25.6
2023-08-01T16:22:15.420Z,25.6
2023-08-01T16:28:07.900Z,25.6
2023-08-01T16:33:44.081Z,25.6
2023-08-01T16:39:37.314Z,25.6
2023-08-01T16:45:30.251Z,25.6
2023-08-01T16:51:34.241Z,25.8
2023-08-01T16:57:25.375Z,25.8
2023-08-01T17:03:17.715Z,25.8
2023-08-01T17:09:10.410Z,25.8
2023-08-01T17:15:02.764Z,25.8
2023-08-01T17:20:54.478Z,25.8
2023-08-01T17:26:46.205Z,25.8
2023-08-01T17:32:39.124Z,25.8
2023-08-01T17:38:30.706Z,25.8
2023-08-01T17:44:22.295Z,25.8
2023-08-01T17:50:15.372Z,25.8
2023-08-01T17:55:52.321Z,25.8
2023-08-01T18:01:14.178Z,25.8
2023-08-01T18:06:53.369Z,25.8
2023-08-01T18:12:29.345Z,25.8
2023-08-01T18:18:07.548Z,25.8
2023-08-01T18:23:59.361Z,25.8
2023-08-01T18:29:50.928Z,25.8
2023-08-01T18:35:43.355Z,25.8
2023-08-01T18:41:37.487Z,25.8
2023-08-01T18:47:30.321Z,25.8
2023-08-01T18:53:22.311Z,25.8
2023-08-01T18:58:59.110Z,25.7
2023-08-01T19:04:50.834Z,25.7
2023-08-01T19:10:48.224Z,25.7
2023-08-01T19:16:42.131Z,25.8
2023-08-01T19:22:33.328Z,25.7
2023-08-01T19:28:26.061Z,25.7
2023-08-01T19:34:18.762Z,25.7
2023-08-01T19:40:10.150Z,25.7
2023-08-01T19:46:01.289Z,25.7
2023-08-01T19:51:39.620Z,25.7
2023-08-01T19:57:31.579Z,25.7
2023-08-01T20:03:08.302Z,25.7
2023-08-01T20:09:03.191Z,25.7
2023-08-01T20:14:54.222Z,25.7
2023-08-01T20:20:30.698Z,25.7
2023-08-01T20:26:21.600Z,25.7
2023-08-01T20:32:13.237Z,25.6
2023-08-01T20:38:05.192Z,25.7
2023-08-01T20:43:56.553Z,25.6
2023-08-01T20:49:51.418Z,25.6
2023-08-01T20:55:42.554Z,25.6
2023-08-01T21:01:34.556Z,25.6
2023-08-01T21:07:26.287Z,25.6
2023-08-01T21:13:33.188Z,25.6
2023-08-01T21:19:10.453Z,25.6
2023-08-01T21:25:02.766Z,25.6
2023-08-01T21:30:38.704Z,25.6
2023-08-01T21:36:16.617Z,25.6
2023-08-01T21:42:08.107Z,25.6
2023-08-01T21:48:00.592Z,25.6
2023-08-01T21:53:52.491Z,25.6
2023-08-01T21:59:44.839Z,25.6
2023-08-01T22:05:37.511Z,25.6
2023-08-01T22:11:30.740Z,25.6
2023-08-01T22:17:07.642Z,25.6
2023-08-01T22:22:44.388Z,25.6
2023-08-01T22:28:36.649Z,25.5
2023-08-01T22:34:28.860Z,25.5
2023-08-01T22:40:20.448Z,25.5
2023-08-01T22:45:56.735Z,25.5
2023-08-01T22:52:01.596Z,25.5
2023-08-01T22:57:37.992Z,25.5
2023-08-01T23:03:14.612Z,25.5
2023-08-01T23:09:06.716Z,25.5
2023-08-01T23:14:56.438Z,25.4
2023-08-01T23:20:17.883Z,25.4
2023-08-01T23:26:10.237Z,25.5
2023-08-01T23:32:02.749Z,25.5
2023-08-01T23:37:38.782Z,25.5
2023-08-01T23:43:30.841Z,25.5
2023-08-01T23:49:22.843Z,25.5
2023-08-01T23:55:14.260Z,25.5
